createdAt,value
2023-03-22T00:01:25.587Z,11.24
2023-03-22T00:03:53.589Z,11.22
2023-03-22T00:06:21.488Z,11.22
2023-03-22T00:08:51.323Z,11.21
2023-03-22T00:11:20.427Z,11.19
2023-03-22T00:13:48.422Z,11.15
2023-03-22T00:16:17.611Z,11.11
2023-03-22T00:18:45.769Z,11.08
2023-03-22T00:21:14.786Z,11.05
2023-03-22T00:23:42.834Z,11.01
2023-03-22T00:26:11.333Z,10.98
2023-03-22T00:28:39.581Z,10.95
2023-03-22T00:31:07.966Z,10.95
2023-03-22T00:33:36.379Z,10.93
2023-03-22T00:36:05.989Z,10.90
2023-03-22T00:38:44.484Z,10.89
2023-03-22T00:41:14.296Z,10.86
2023-03-22T00:43:42.810Z,10.83
2023-03-22T00:46:11.346Z,10.81
2023-03-22T00:48:39.552Z,10.80
2023-03-22T00:51:08.103Z,10.77
2023-03-22T00:53:40.499Z,10.77
2023-03-22T00:56:14.281Z,10.77
2023-03-22T00:58:46.651Z,10.77
2023-03-22T01:01:15.157Z,10.75
2023-03-22T01:03:43.962Z,10.73
2023-03-22T01:06:15.505Z,10.71
2023-03-22T01:08:43.501Z,10.68
2023-03-22T01:11:11.545Z,10.62
2023-03-22T01:13:41.913Z,10.57
2023-03-22T01:16:10.663Z,10.54
2023-03-22T01:18:38.751Z,10.49
2023-03-22T01:21:07.719Z,10.47
2023-03-22T01:23:35.733Z,10.46
2023-03-22T01:26:04.465Z,10.44
2023-03-22T01:28:32.620Z,10.40
2023-03-22T01:31:01.813Z,10.36
2023-03-22T01:33:30.655Z,10.34
2023-03-22T01:35:59.243Z,10.33
2023-03-22T01:38:27.318Z,10.30
2023-03-22T01:40:58.003Z,10.26
2023-03-22T01:43:26.508Z,10.23
2023-03-22T01:45:55.368Z,10.18
2023-03-22T01:48:27.496Z,10.11
2023-03-22T01:51:03.038Z,10.06
2023-03-22T01:53:36.138Z,10.02
2023-03-22T01:56:05.986Z,9.98
2023-03-22T01:58:36.009Z,9.96
2023-03-22T02:01:06.252Z,9.95
2023-03-22T02:03:48.072Z,9.95
2023-03-22T02:06:16.986Z,9.95
2023-03-22T02:08:45.029Z,9.93
2023-03-22T02:11:17.515Z,9.92
2023-03-22T02:14:05.363Z,9.90
2023-03-22T02:17:02.594Z,9.89
2023-03-22T02:19:45.673Z,9.88
2023-03-22T02:22:38.896Z,9.85
2023-03-22T02:25:06.838Z,9.80
2023-03-22T02:27:51.282Z,9.77
2023-03-22T02:30:32.024Z,9.74
2023-03-22T02:33:06.323Z,9.71
2023-03-22T02:35:48.465Z,9.69
2023-03-22T02:38:36.898Z,9.69
2023-03-22T02:41:13.977Z,9.68
2023-03-22T02:44:00.613Z,9.67
2023-03-22T02:46:38.058Z,9.65
2023-03-22T02:49:12.056Z,9.65
2023-03-22T02:51:45.891Z,9.65
2023-03-22T02:54:18.795Z,9.65
2023-03-22T02:57:01.064Z,9.65
2023-03-22T02:59:31.345Z,9.61
2023-03-22T03:02:00.364Z,9.59
2023-03-22T03:04:33.207Z,9.54
2023-03-22T03:07:03.922Z,9.51
2023-03-22T03:09:33.262Z,9.45
2023-03-22T03:12:01.542Z,9.38
2023-03-22T03:14:31.239Z,9.33
2023-03-22T03:17:18.301Z,9.29
2023-03-22T03:19:52.261Z,9.25
2023-03-22T03:22:27.483Z,9.23
2023-03-22T03:25:06.896Z,9.23
2023-03-22T03:27:39.783Z,9.21
2023-03-22T03:30:16.488Z,9.18
2023-03-22T03:32:47.698Z,9.15
2023-03-22T03:35:22.775Z,9.12
2023-03-22T03:37:57.657Z,9.09
2023-03-22T03:40:55.621Z,9.07
2023-03-22T03:43:25.695Z,9.07
2023-03-22T03:45:54.455Z,9.08
2023-03-22T03:48:23.914Z,9.09
2023-03-22T03:50:53.206Z,9.10
2023-03-22T03:53:21.923Z,9.11
2023-03-22T03:55:49.879Z,9.13
2023-03-22T03:58:18.043Z,9.16
2023-03-22T04:00:47.206Z,9.15
2023-03-22T04:03:33.600Z,9.13
2023-03-22T04:06:14.510Z,9.12
2023-03-22T04:08:46.616Z,9.12
2023-03-22T04:11:16.478Z,9.11
2023-03-22T04:13:44.749Z,9.11
2023-03-22T04:16:16.028Z,9.10
2023-03-22T04:18:44.309Z,9.08
2023-03-22T04:21:13.423Z,9.05
2023-03-22T04:23:52.652Z,9.04
2023-03-22T04:26:21.491Z,9.03
2023-03-22T04:29:07.191Z,8.99
2023-03-22T04:31:37.041Z,8.98
2023-03-22T04:34:15.901Z,8.97
2023-03-22T04:36:51.214Z,8.98
2023-03-22T04:39:27.170Z,8.96
2023-03-22T04:42:06.404Z,8.93
2023-03-22T04:44:35.631Z,8.92
2023-03-22T04:47:04.049Z,8.91
2023-03-22T04:49:32.168Z,8.91
2023-03-22T04:52:00.399Z,8.90
2023-03-22T04:54:35.523Z,8.89
2023-03-22T04:57:03.938Z,8.89
2023-03-22T04:59:37.135Z,8.90
2023-03-22T05:02:05.855Z,8.91
2023-03-22T05:04:39.994Z,8.90
2023-03-22T05:07:14.746Z,8.88
2023-03-22T05:09:47.474Z,8.89
2023-03-22T05:12:16.114Z,8.90
2023-03-22T05:15:03.745Z,8.92
2023-03-22T05:17:34.747Z,8.93
2023-03-22T05:20:09.419Z,8.93
2023-03-22T05:22:40.845Z,8.89
2023-03-22T05:25:11.714Z,8.87
2023-03-22T05:27:42.381Z,8.86
2023-03-22T05:30:24.390Z,8.85
2023-03-22T05:33:03.298Z,8.86
2023-03-22T05:35:34.046Z,8.84
2023-03-22T05:38:03.625Z,8.84
2023-03-22T05:40:32.045Z,8.83
2023-03-22T05:43:00.687Z,8.83
2023-03-22T05:45:29.479Z,8.82
2023-03-22T05:48:23.673Z,8.80
2023-03-22T05:50:51.991Z,8.79
2023-03-22T05:53:20.199Z,8.79
2023-03-22T05:56:03.536Z,8.79
2023-03-22T05:58:33.925Z,8.80
2023-03-22T06:01:06.642Z,8.80
2023-03-22T06:03:46.599Z,8.81
2023-03-22T06:06:37.240Z,8.84
2023-03-22T06:09:17.546Z,8.86
2023-03-22T06:11:49.473Z,8.88
2023-03-22T06:14:17.948Z,8.90
2023-03-22T06:17:06.325Z,8.92
2023-03-22T06:19:34.479Z,8.94
2023-03-22T06:22:04.733Z,8.94
2023-03-22T06:24:33.947Z,8.97
2023-03-22T06:27:05.607Z,9.00
2023-03-22T06:29:34.046Z,9.03
2023-03-22T06:32:03.903Z,9.03
2023-03-22T06:34:32.809Z,9.05
2023-03-22T06:37:01.320Z,9.08
2023-03-22T06:39:34.930Z,9.13
2023-03-22T06:42:04.106Z,9.16
2023-03-22T06:44:32.336Z,9.20
2023-03-22T06:47:18.955Z,9.25
2023-03-22T06:50:10.583Z,9.32
2023-03-22T06:53:13.964Z,9.43
2023-03-22T06:55:42.164Z,9.53
2023-03-22T06:58:16.625Z,9.64
2023-03-22T07:00:44.596Z,9.74
2023-03-22T07:03:12.599Z,9.83
2023-03-22T07:05:47.575Z,9.94
2023-03-22T07:08:16.114Z,10.04
2023-03-22T07:10:50.414Z,10.14
2023-03-22T07:13:19.424Z,10.24
2023-03-22T07:15:48.190Z,10.33
2023-03-22T07:18:31.011Z,10.44
2023-03-22T07:20:59.270Z,10.53
2023-03-22T07:23:27.815Z,10.62
2023-03-22T07:26:00.797Z,10.72
2023-03-22T07:28:31.845Z,10.81
2023-03-22T07:31:05.053Z,10.89
2023-03-22T07:33:42.032Z,10.98
2023-03-22T07:36:10.717Z,11.07
2023-03-22T07:38:38.739Z,11.15
2023-03-22T07:41:09.631Z,11.24
2023-03-22T07:44:16.655Z,11.32
2023-03-22T07:46:52.547Z,11.42
2023-03-22T07:49:31.488Z,11.50
2023-03-22T07:52:05.649Z,11.59
2023-03-22T07:54:34.666Z,11.66
2023-03-22T07:57:04.280Z,11.74
2023-03-22T07:59:32.996Z,11.82
2023-03-22T08:02:02.330Z,11.89
2023-03-22T08:04:38.157Z,11.97
2023-03-22T08:07:26.418Z,12.05
2023-03-22T08:09:54.522Z,12.12
2023-03-22T08:12:23.037Z,12.20
2023-03-22T08:14:56.652Z,12.28
2023-03-22T08:17:26.368Z,12.35
2023-03-22T08:19:57.323Z,12.40
2023-03-22T08:22:36.652Z,12.48
2023-03-22T08:25:24.803Z,12.55
2023-03-22T08:27:53.615Z,12.62
2023-03-22T08:30:22.533Z,12.69
2023-03-22T08:32:50.788Z,12.77
2023-03-22T08:35:18.764Z,12.84
2023-03-22T08:37:46.738Z,12.92
2023-03-22T08:40:16.008Z,12.99
2023-03-22T08:42:50.481Z,13.06
2023-03-22T08:45:18.917Z,13.13
2023-03-22T08:47:54.822Z,13.20
2023-03-22T08:50:24.608Z,13.26
2023-03-22T08:53:00.733Z,13.34
2023-03-22T08:55:37.477Z,13.40
2023-03-22T08:58:16.638Z,13.48
2023-03-22T09:00:51.010Z,13.54
2023-03-22T09:03:35.407Z,13.63
2023-03-22T09:06:03.432Z,13.70
2023-03-22T09:08:34.591Z,13.77
2023-03-22T09:11:11.219Z,13.82
2023-03-22T09:13:39.205Z,13.87
2023-03-22T09:16:09.012Z,13.94
2023-03-22T09:18:37.697Z,14.00
2023-03-22T09:21:11.471Z,14.08
2023-03-22T09:23:59.679Z,14.16
2023-03-22T09:26:37.792Z,14.24
2023-03-22T09:29:07.018Z,14.31
2023-03-22T09:31:35.135Z,14.40
2023-03-22T09:34:11.934Z,14.48
2023-03-22T09:36:40.566Z,14.55
2023-03-22T09:39:10.077Z,14.62
2023-03-22T09:41:41.347Z,14.69
2023-03-22T09:44:15.992Z,14.74
2023-03-22T09:46:46.299Z,14.81
2023-03-22T09:49:17.157Z,14.86
2023-03-22T09:51:46.958Z,14.92
2023-03-22T09:54:19.620Z,14.97
2023-03-22T09:56:53.236Z,15.01
2023-03-22T09:59:21.142Z,15.03
2023-03-22T10:01:56.756Z,15.06
2023-03-22T10:04:43.605Z,15.09
2023-03-22T10:07:11.480Z,15.12
2023-03-22T10:09:39.417Z,15.14
2023-03-22T10:12:16.555Z,15.15
2023-03-22T10:14:51.433Z,15.17
2023-03-22T10:17:23.262Z,15.19
2023-03-22T10:20:00.847Z,15.21
2023-03-22T10:22:31.414Z,15.22
2023-03-22T10:25:00.527Z,15.23
2023-03-22T10:27:29.809Z,15.24
2023-03-22T10:30:19.372Z,15.25
2023-03-22T10:32:57.008Z,15.26
2023-03-22T10:35:26.230Z,15.26
2023-03-22T10:37:56.158Z,15.26
2023-03-22T10:40:27.209Z,15.26
2023-03-22T10:42:56.937Z,15.25
2023-03-22T10:45:26.441Z,15.24
2023-03-22T10:48:30.019Z,15.24
2023-03-22T10:50:58.957Z,15.24
2023-03-22T10:53:39.001Z,15.24
2023-03-22T10:56:11.719Z,15.24
2023-03-22T10:58:39.570Z,15.24
2023-03-22T11:01:09.121Z,15.25
2023-03-22T11:03:43.025Z,15.26
2023-03-22T11:06:12.597Z,15.28
2023-03-22T11:08:42.878Z,15.30
2023-03-22T11:11:19.662Z,15.33
2023-03-22T11:14:10.997Z,15.36
2023-03-22T11:16:54.375Z,15.40
2023-03-22T11:19:32.094Z,15.44
2023-03-22T11:22:00.961Z,15.48
2023-03-22T11:24:31.063Z,15.52
2023-03-22T11:27:18.411Z,15.57
2023-03-22T11:29:47.549Z,15.62
2023-03-22T11:32:41.800Z,15.67
2023-03-22T11:35:14.650Z,15.74
2023-03-22T11:37:43.469Z,15.79
2023-03-22T11:40:18.328Z,15.85
2023-03-22T11:42:47.296Z,15.92
2023-03-22T11:45:19.770Z,15.98
2023-03-22T11:47:48.000Z,16.03
2023-03-22T11:50:36.184Z,16.09
2023-03-22T11:53:06.499Z,16.17
2023-03-22T11:55:37.935Z,16.22
2023-03-22T11:58:06.565Z,16.28
2023-03-22T12:00:40.554Z,16.34
2023-03-22T12:03:15.886Z,16.40
2023-03-22T12:05:44.926Z,16.44
2023-03-22T12:08:19.582Z,16.48
2023-03-22T12:10:54.004Z,16.51
2023-03-22T12:13:21.871Z,16.53
2023-03-22T12:15:55.454Z,16.55
2023-03-22T12:18:29.734Z,16.56
2023-03-22T12:20:58.946Z,16.56
2023-03-22T12:23:31.223Z,16.57
2023-03-22T12:26:15.158Z,16.59
2023-03-22T12:28:49.495Z,16.61
2023-03-22T12:31:30.004Z,16.63
2023-03-22T12:33:59.969Z,16.66
2023-03-22T12:36:46.956Z,16.69
2023-03-22T12:39:22.936Z,16.71
2023-03-22T12:41:53.958Z,16.75
2023-03-22T12:44:24.849Z,16.77
2023-03-22T12:46:57.574Z,16.79
2023-03-22T12:49:25.627Z,16.81
2023-03-22T12:51:56.044Z,16.82
2023-03-22T12:54:25.839Z,16.83
2023-03-22T12:56:54.984Z,16.84
2023-03-22T12:59:32.566Z,16.84
2023-03-22T13:02:14.347Z,16.83
2023-03-22T13:04:45.699Z,16.83
2023-03-22T13:07:13.696Z,16.82
2023-03-22T13:09:49.061Z,16.82
2023-03-22T13:12:17.085Z,16.80
2023-03-22T13:14:51.123Z,16.79
2023-03-22T13:17:22.290Z,16.78
2023-03-22T13:20:06.703Z,16.76
2023-03-22T13:22:37.889Z,16.73
2023-03-22T13:25:07.295Z,16.71
2023-03-22T13:27:41.921Z,16.68
2023-03-22T13:30:36.105Z,16.64
2023-03-22T13:33:10.508Z,16.59
2023-03-22T13:35:44.835Z,16.54
2023-03-22T13:38:21.335Z,16.50
2023-03-22T13:41:08.020Z,16.48
2023-03-22T13:43:38.975Z,16.46
2023-03-22T13:46:06.986Z,16.44
2023-03-22T13:48:47.590Z,16.40
2023-03-22T13:51:26.562Z,16.37
2023-03-22T13:54:08.772Z,16.32
2023-03-22T13:57:00.989Z,16.30
2023-03-22T13:59:32.537Z,16.29
2023-03-22T14:02:00.655Z,16.27
2023-03-22T14:04:32.346Z,16.24
2023-03-22T14:07:07.068Z,16.21
2023-03-22T14:09:39.426Z,16.18
2023-03-22T14:12:14.905Z,16.13
2023-03-22T14:14:47.092Z,16.10
2023-03-22T14:17:27.100Z,16.07
2023-03-22T14:19:56.280Z,16.04
